Time;durP1;ratioP1;P1;durP2;ratioP2;P2;SDS_P1;SDS_P2;PMS_P1;PMS_P2;Temp;Humidity;BMP_temperature;BMP_pressure;BME280_temperature;BME280_humidity;BME280_pressure;Samples;Min_cycle;Max_cycle;Signal;HPM_P1;HPM_P2
2022/01/22 00:01:01;;;;;;;5.33;5.03;;;16.40;64.50;;;;;;5086483;28;44139;-69
2022/01/22 00:03:30;;;;;;;5.30;4.90;;;16.40;64.60;;;;;;5069098;28;44250;-70
2022/01/22 00:05:59;;;;;;;5.30;5.00;;;16.40;64.70;;;;;;5062968;28;43353;-69
2022/01/22 00:08:27;;;;;;;5.77;5.37;;;16.30;64.50;;;;;;5096134;27;43999;-70
2022/01/22 00:10:56;;;;;;;5.67;5.27;;;16.30;64.80;;;;;;5063657;28;44296;-71
2022/01/22 00:16:12;;;;;;;5.60;5.20;;;16.50;64.20;;;;;;5071461;28;43893;-69
2022/01/22 00:18:41;;;;;;;4.90;4.60;;;16.60;63.90;;;;;;5069010;28;43456;-70
2022/01/22 00:21:09;;;;;;;4.97;4.67;;;16.50;63.90;;;;;;5069690;28;44126;-69
2022/01/22 00:23:40;;;;;;;5.07;4.77;;;16.50;64.00;;;;;;5087053;27;43934;-69
2022/01/22 00:26:09;;;;;;;5.17;4.87;;;16.50;64.20;;;;;;5069196;28;43886;-69
2022/01/22 00:28:37;;;;;;;4.77;4.50;;;16.50;64.40;;;;;;5052114;28;43904;-69
2022/01/22 00:31:06;;;;;;;5.33;4.93;;;16.40;64.50;;;;;;5085428;27;44061;-70
2022/01/22 00:33:35;;;;;;;5.67;5.17;;;16.40;64.60;;;;;;5086917;27;44130;-70
2022/01/22 00:36:05;;;;;;;5.37;4.97;;;16.30;64.50;;;;;;5085805;28;43962;-70
2022/01/22 00:38:33;;;;;;;5.20;4.90;;;16.30;64.50;;;;;;5086387;27;43829;-69
2022/01/22 00:41:03;;;;;;;4.87;4.57;;;16.30;64.70;;;;;;5086507;28;44063;-70
2022/01/22 00:43:33;;;;;;;5.00;4.70;;;16.30;64.80;;;;;;5085098;28;45932;-69
2022/01/22 00:46:03;;;;;;;5.03;4.73;;;16.30;64.80;;;;;;5086166;28;44280;-69
2022/01/22 00:48:31;;;;;;;5.00;4.70;;;16.30;64.80;;;;;;5085081;27;44085;-70
2022/01/22 00:51:00;;;;;;;5.00;4.70;;;16.30;65.00;;;;;;5085988;27;43850;-70
2022/01/22 00:53:28;;;;;;;4.83;4.53;;;16.30;64.90;;;;;;5084540;28;46426;-69
2022/01/22 00:55:56;;;;;;;5.47;5.07;;;16.50;64.60;;;;;;5085471;28;43920;-69
2022/01/22 00:58:25;;;;;;;4.87;4.57;;;16.60;64.00;;;;;;5084795;27;43368;-69
2022/01/22 01:00:53;;;;;;;4.57;4.30;;;16.70;63.60;;;;;;5085663;27;44008;-70
2022/01/22 01:03:22;;;;;;;4.97;4.67;;;16.80;63.30;;;;;;5085732;28;44173;-69
2022/01/22 01:05:51;;;;;;;4.53;4.33;;;16.70;63.20;;;;;;5068625;28;44175;-70
2022/01/22 01:08:21;;;;;;;4.50;4.20;;;16.70;63.50;;;;;;5068374;28;44007;-70
2022/01/22 01:10:49;;;;;;;4.70;4.40;;;16.60;63.60;;;;;;5068592;28;44186;-69
2022/01/22 01:13:18;;;;;;;4.73;4.43;;;16.60;63.90;;;;;;5068216;28;45822;-70
2022/01/22 01:15:58;;;;;;;4.83;4.53;;;16.50;64.00;;;;;;5085025;28;43451;-69
2022/01/22 01:32:39;;;;;;;4.57;4.37;;;16.30;64.70;;;;;;5070580;28;43498;-69
2022/01/22 01:35:09;;;;;;;4.60;4.40;;;16.40;64.70;;;;;;5084823;28;44558;-69
2022/01/22 01:37:38;;;;;;;4.70;4.40;;;16.50;64.20;;;;;;5086449;27;43546;-69
2022/01/22 01:40:12;;;;;;;4.60;4.30;;;16.50;63.90;;;;;;5068201;28;43959;-70
2022/01/22 01:42:48;;;;;;;4.60;4.40;;;16.50;63.90;;;;;;5067968;28;43793;-69
2022/01/22 01:45:17;;;;;;;4.67;4.40;;;16.50;64.10;;;;;;5068812;28;46137;-69
2022/01/22 01:47:54;;;;;;;4.40;4.20;;;16.50;64.30;;;;;;5068530;28;44428;-70
2022/01/22 01:50:25;;;;;;;4.03;3.83;;;16.40;64.30;;;;;;5062310;28;44038;-70
2022/01/22 01:53:07;;;;;;;4.33;4.13;;;16.40;64.50;;;;;;5084899;28;43933;-69
2022/01/22 01:55:49;;;;;;;4.07;3.87;;;16.30;64.50;;;;;;5069212;28;46460;-69
2022/01/22 01:58:22;;;;;;;4.30;4.10;;;16.30;64.60;;;;;;5084010;28;44382;-69
2022/01/22 02:00:50;;;;;;;4.60;4.40;;;16.30;64.60;;;;;;5067782;28;44053;-69
2022/01/22 02:03:20;;;;;;;4.73;4.53;;;16.30;64.70;;;;;;5085064;28;43945;-69
2022/01/22 02:06:06;;;;;;;4.20;4.00;;;16.30;64.80;;;;;;5069768;28;44156;-70
2022/01/22 02:08:36;;;;;;;4.33;4.13;;;16.30;64.80;;;;;;5067376;28;44536;-69
2022/01/22 02:11:13;;;;;;;4.00;3.80;;;16.30;64.80;;;;;;5068541;28;44046;-70
2022/01/22 02:14:06;;;;;;;4.63;4.33;;;16.30;65.00;;;;;;5082007;28;44126;-69
2022/01/22 02:25:37;;;;;;;4.40;4.17;;;16.80;63.30;;;;;;5086433;27;44010;-70
2022/01/22 02:28:06;;;;;;;3.73;3.63;;;16.80;63.30;;;;;;5083878;28;43920;-70
2022/01/22 02:30:40;;;;;;;3.97;3.80;;;16.70;63.50;;;;;;5066309;28;44040;-69
2022/01/22 02:33:31;;;;;;;4.07;3.80;;;16.60;63.60;;;;;;5079965;28;43937;-69
2022/01/22 02:36:05;;;;;;;4.20;3.90;;;16.60;63.90;;;;;;5069062;28;43578;-69
2022/01/22 02:38:40;;;;;;;3.70;3.60;;;16.50;64.00;;;;;;5084050;28;44543;-69
2022/01/22 02:41:13;;;;;;;3.80;3.60;;;16.50;64.30;;;;;;5083837;28;43421;-69
2022/01/22 02:43:42;;;;;;;4.27;4.03;;;16.50;64.30;;;;;;5067649;28;44258;-69
2022/01/22 02:46:14;;;;;;;4.10;3.90;;;16.40;64.40;;;;;;5067495;28;43609;-69
2022/01/22 02:48:43;;;;;;;4.17;3.97;;;16.40;64.50;;;;;;5060768;28;45982;-70
2022/01/22 02:51:14;;;;;;;4.33;4.13;;;16.40;64.60;;;;;;5043858;28;43919;-69
2022/01/22 02:53:45;;;;;;;4.70;4.40;;;16.40;64.70;;;;;;5063442;28;44045;-70
2022/01/22 02:56:15;;;;;;;3.93;3.83;;;16.50;64.60;;;;;;5071290;28;43952;-69
2022/01/22 02:58:44;;;;;;;3.83;3.63;;;16.50;64.00;;;;;;5088179;27;44095;-69
2022/01/22 03:01:15;;;;;;;4.13;3.93;;;16.60;63.80;;;;;;5070489;28;45624;-70
2022/01/22 03:03:44;;;;;;;3.70;3.60;;;16.60;63.90;;;;;;5070950;28;43975;-70
2022/01/22 03:06:13;;;;;;;4.00;3.90;;;16.60;64.00;;;;;;5087328;28;44099;-69
2022/01/22 03:08:43;;;;;;;3.67;3.57;;;16.50;64.10;;;;;;5069812;28;44696;-70
2022/01/22 03:11:19;;;;;;;3.90;3.70;;;16.50;64.40;;;;;;5087074;28;43838;-70
2022/01/22 03:16:50;;;;;;;3.73;3.57;;;16.40;64.60;;;;;;5072950;28;44210;-69
2022/01/22 03:19:32;;;;;;;4.03;3.80;;;16.30;64.50;;;;;;5072444;28;45677;-69
2022/01/22 03:22:13;;;;;;;3.80;3.70;;;16.30;64.50;;;;;;5087536;28;43926;-69
2022/01/22 03:27:30;;;;;;;3.83;3.70;;;16.30;64.70;;;;;;5072473;28;43996;-70
2022/01/22 03:30:01;;;;;;;3.80;3.60;;;16.30;64.80;;;;;;5086466;28;43806;-69
2022/01/22 03:32:35;;;;;;;3.80;3.60;;;16.30;65.00;;;;;;5052965;28;44624;-68
2022/01/22 03:35:11;;;;;;;3.23;3.13;;;16.30;64.80;;;;;;5070976;28;43448;-70
2022/01/22 03:37:39;;;;;;;3.47;3.37;;;16.50;64.60;;;;;;5087417;28;43450;-70
2022/01/22 03:40:08;;;;;;;3.50;3.40;;;16.60;64.10;;;;;;5086859;28;43801;-69
2022/01/22 03:42:39;;;;;;;3.67;3.53;;;16.70;63.60;;;;;;5069797;28;43982;-70
2022/01/22 03:45:11;;;;;;;3.67;3.47;;;16.80;63.40;;;;;;5086358;27;44065;-70
2022/01/22 03:47:40;;;;;;;3.77;3.63;;;16.70;63.30;;;;;;5069920;28;44014;-69
2022/01/22 03:50:11;;;;;;;3.70;3.50;;;16.70;63.50;;;;;;5069932;28;46695;-69
2022/01/22 03:52:39;;;;;;;3.33;3.23;;;16.60;63.70;;;;;;5069561;28;45452;-69
2022/01/22 03:55:12;;;;;;;3.53;3.40;;;16.50;63.90;;;;;;5069746;28;44049;-69
2022/01/22 03:58:02;;;;;;;3.30;3.20;;;16.50;64.10;;;;;;5070650;28;44105;-70
2022/01/22 04:00:32;;;;;;;3.43;3.23;;;16.40;64.20;;;;;;5086208;28;44046;-69
2022/01/22 04:03:26;;;;;;;3.50;3.40;;;16.40;64.40;;;;;;5086480;28;44003;-69
2022/01/22 04:06:15;;;;;;;3.70;3.50;;;16.40;64.50;;;;;;5072425;28;43340;-70
2022/01/22 04:08:44;;;;;;;3.47;3.37;;;16.40;64.60;;;;;;5072810;28;43874;-70
2022/01/22 04:11:15;;;;;;;3.57;3.47;;;16.40;64.60;;;;;;5086373;28;44029;-69
2022/01/22 04:13:48;;;;;;;3.30;3.17;;;16.30;64.70;;;;;;5069601;28;45912;-70
2022/01/22 04:16:16;;;;;;;3.27;3.17;;;16.40;64.60;;;;;;5085908;27;43428;-70
2022/01/22 04:27:10;;;;;;;3.30;3.20;;;16.60;64.10;;;;;;5086211;28;44032;-70
2022/01/22 04:29:40;;;;;;;3.33;3.23;;;16.50;64.10;;;;;;5087288;27;44040;-69
2022/01/22 04:32:10;;;;;;;3.47;3.37;;;16.50;64.30;;;;;;5087055;28;43967;-70
2022/01/22 04:34:38;;;;;;;3.57;3.43;;;16.40;64.30;;;;;;5085118;28;44656;-70
2022/01/22 04:37:07;;;;;;;3.97;3.77;;;16.40;64.40;;;;;;5068931;28;43401;-69
2022/01/22 04:39:36;;;;;;;4.33;4.03;;;16.40;64.50;;;;;;5069300;28;44190;-69
2022/01/22 04:42:09;;;;;;;6.20;4.63;;;16.30;64.50;;;;;;5069130;28;45718;-70
2022/01/22 04:44:46;;;;;;;5.73;5.13;;;16.30;64.50;;;;;;5075632;28;45358;-70
2022/01/22 04:47:27;;;;;;;7.67;5.43;;;16.30;64.60;;;;;;5070687;28;43886;-70
2022/01/22 04:54:57;;;;;;;14.10;6.10;;;16.30;64.70;;;;;;5071096;28;44072;-70
2022/01/22 04:55:31;;;;;;;12.27;5.93;;;16.30;64.80;;;;;;5085001;28;44759;-69
2022/01/22 04:58:03;;;;;;;9.03;6.17;;;16.50;64.60;;;;;;5069141;28;43717;-69
2022/01/22 05:00:33;;;;;;;12.30;7.10;;;16.60;64.00;;;;;;5069636;28;44005;-70
2022/01/22 05:03:08;;;;;;;15.13;7.20;;;16.70;63.50;;;;;;5082301;28;43960;-70
2022/01/22 05:05:48;;;;;;;9.23;5.90;;;16.80;63.20;;;;;;5070168;28;45165;-70
2022/01/22 05:08:48;;;;;;;11.93;6.50;;;16.80;63.20;;;;;;5039491;28;44014;-70
2022/01/22 05:11:18;;;;;;;11.63;6.43;;;16.70;63.30;;;;;;5069594;28;44233;-70
2022/01/22 05:13:48;;;;;;;9.90;5.90;;;16.60;63.50;;;;;;5069047;28;44076;-70
2022/01/22 05:16:16;;;;;;;10.27;6.60;;;16.60;63.80;;;;;;5084340;27;44149;-70
2022/01/22 05:18:52;;;;;;;8.30;5.40;;;16.50;63.90;;;;;;5084988;28;44063;-70
2022/01/22 05:21:23;;;;;;;9.77;6.47;;;16.50;64.10;;;;;;5069986;28;43952;-69
2022/01/22 05:23:55;;;;;;;10.00;6.77;;;16.40;64.20;;;;;;5068908;28;45063;-70
2022/01/22 05:29:21;;;;;;;13.60;6.20;;;16.40;64.50;;;;;;5070009;28;43917;-70
2022/01/22 05:32:32;;;;;;;10.13;6.33;;;16.40;64.60;;;;;;5082526;28;43843;-68
2022/01/22 05:38:19;;;;;;;11.83;6.40;;;16.50;64.40;;;;;;5084445;28;45693;-69
2022/01/22 05:40:47;;;;;;;11.17;6.00;;;16.60;64.00;;;;;;5084631;27;43846;-70
2022/01/22 05:43:16;;;;;;;11.83;5.97;;;16.60;63.90;;;;;;5068281;28;43474;-69
2022/01/22 05:45:45;;;;;;;7.67;6.00;;;16.60;64.00;;;;;;5085943;27;44049;-69
2022/01/22 05:48:15;;;;;;;9.10;5.63;;;16.50;64.10;;;;;;5067826;28;44624;-70
2022/01/22 05:50:50;;;;;;;7.97;5.97;;;16.50;64.20;;;;;;5084013;27;43980;-69
2022/01/22 05:53:33;;;;;;;8.83;5.67;;;16.40;64.30;;;;;;5069200;28;43965;-69
2022/01/22 06:01:43;;;;;;;9.57;6.00;;;16.30;64.50;;;;;;5084748;28;44059;-69
2022/01/22 06:04:24;;;;;;;8.33;5.80;;;16.30;64.50;;;;;;5070139;28;43973;-70
2022/01/22 06:07:01;;;;;;;7.90;5.83;;;16.30;64.50;;;;;;5084668;28;43969;-69
2022/01/22 06:09:31;;;;;;;7.83;5.53;;;16.30;64.70;;;;;;5050137;28;44763;-70
2022/01/22 06:12:15;;;;;;;7.20;5.20;;;16.30;64.70;;;;;;5052063;28;44286;-69
2022/01/22 06:14:53;;;;;;;8.33;5.93;;;16.30;64.90;;;;;;5056595;28;44007;-69
2022/01/22 06:17:22;;;;;;;8.43;5.70;;;16.40;64.60;;;;;;5067532;28;45398;-70
2022/01/22 06:19:54;;;;;;;7.23;5.63;;;16.50;64.20;;;;;;5084613;28;45683;-69
2022/01/22 06:22:24;;;;;;;8.77;5.50;;;16.70;63.80;;;;;;5067823;28;44081;-69
2022/01/22 06:24:54;;;;;;;7.10;5.27;;;16.80;63.40;;;;;;5078102;28;43925;-69
2022/01/22 06:27:23;;;;;;;7.87;5.50;;;16.80;63.10;;;;;;5061166;27;43923;-70
2022/01/22 06:29:52;;;;;;;6.67;5.20;;;16.80;63.20;;;;;;5086105;28;45165;-70
2022/01/22 06:32:20;;;;;;;7.90;5.67;;;16.70;63.40;;;;;;5071239;28;44013;-69
2022/01/22 06:34:49;;;;;;;6.83;4.97;;;16.60;63.60;;;;;;5071448;28;43997;-69
2022/01/22 06:37:17;;;;;;;6.93;5.00;;;16.60;63.90;;;;;;5054020;28;45408;-70
2022/01/22 06:43:09;;;;;;;6.60;5.07;;;16.50;64.20;;;;;;5085211;28;43909;-70
2022/01/22 06:46:13;;;;;;;6.70;5.30;;;16.40;64.30;;;;;;5034282;28;44080;-70
2022/01/22 06:48:54;;;;;;;5.37;4.87;;;16.40;64.50;;;;;;5061325;28;44055;-70
2022/01/22 06:51:40;;;;;;;6.30;5.40;;;16.40;64.60;;;;;;5073039;28;43901;-69
2022/01/22 06:54:10;;;;;;;5.17;4.60;;;16.40;64.60;;;;;;5070155;28;43962;-69
2022/01/22 06:56:39;;;;;;;7.43;5.50;;;16.40;64.70;;;;;;5071047;28;44547;-69
2022/01/22 06:59:11;;;;;;;5.43;4.87;;;16.50;64.40;;;;;;5087298;28;44801;-70
2022/01/22 07:01:43;;;;;;;7.00;5.53;;;16.60;64.10;;;;;;5070956;28;43963;-69
2022/01/22 07:04:17;;;;;;;5.40;4.50;;;16.60;64.00;;;;;;5071591;28;43925;-69
2022/01/22 07:07:12;;;;;;;7.80;4.90;;;16.50;64.00;;;;;;5082842;28;44226;-70
2022/01/22 07:09:44;;;;;;;4.97;4.57;;;16.50;64.10;;;;;;5070013;28;44951;-70
2022/01/22 07:12:14;;;;;;;6.43;4.57;;;16.50;64.30;;;;;;5070103;28;45347;-70
2022/01/22 07:14:49;;;;;;;6.53;5.03;;;16.40;64.40;;;;;;5070381;28;44076;-70
2022/01/22 07:17:20;;;;;;;4.80;4.30;;;16.40;64.60;;;;;;5072165;28;43996;-69
2022/01/22 07:20:00;;;;;;;5.20;4.80;;;16.30;64.50;;;;;;5069519;28;45076;-69
2022/01/22 07:22:39;;;;;;;5.20;4.33;;;16.30;64.50;;;;;;5081720;27;44009;-69
2022/01/22 07:25:31;;;;;;;4.90;4.40;;;16.30;64.70;;;;;;5087073;28;43466;-70
2022/01/22 07:28:17;;;;;;;5.17;4.60;;;16.30;64.80;;;;;;5087812;28;43997;-70
2022/01/22 07:30:52;;;;;;;4.90;4.37;;;16.30;64.80;;;;;;5064692;28;43997;-70
2022/01/22 07:33:24;;;;;;;5.00;4.60;;;16.30;64.80;;;;;;5070532;28;43944;-71
2022/01/22 07:35:54;;;;;;;5.07;4.60;;;16.30;65.10;;;;;;5070758;28;44014;-69
2022/01/22 07:38:29;;;;;;;5.20;4.70;;;16.30;64.90;;;;;;5054678;28;44207;-70
2022/01/22 07:40:59;;;;;;;4.63;4.23;;;16.50;64.60;;;;;;5087493;27;43923;-69
2022/01/22 07:43:37;;;;;;;4.70;4.30;;;16.60;64.00;;;;;;5087738;28;43930;-70
2022/01/22 07:46:14;;;;;;;4.77;4.37;;;16.70;63.60;;;;;;5084400;28;43882;-70
2022/01/22 07:49:06;;;;;;;5.20;4.70;;;16.80;64.10;;;;;;5101561;27;44095;-69
2022/01/22 07:51:43;;;;;;;5.00;4.40;;;16.70;63.50;;;;;;5070952;28;45582;-69
2022/01/22 07:54:12;;;;;;;4.67;4.20;;;16.60;63.60;;;;;;5053549;28;44017;-69
2022/01/22 07:56:41;;;;;;;5.50;5.00;;;16.60;63.90;;;;;;5070203;28;44253;-70
2022/01/22 07:59:13;;;;;;;4.63;4.23;;;16.50;64.00;;;;;;5054391;28;44081;-70
2022/01/22 08:01:47;;;;;;;5.03;4.53;;;16.50;64.20;;;;;;5070629;28;44089;-70
2022/01/22 08:04:35;;;;;;;4.73;4.33;;;16.40;64.30;;;;;;5087252;28;43346;-70
2022/01/22 08:07:22;;;;;;;5.20;4.70;;;16.40;64.50;;;;;;5085170;28;43992;-70
2022/01/22 08:10:10;;;;;;;5.03;4.60;;;16.40;64.70;;;;;;5087571;28;43903;-70
2022/01/22 08:12:49;;;;;;;5.00;4.50;;;16.30;64.50;;;;;;5071398;28;43995;-70
2022/01/22 08:15:21;;;;;;;4.87;4.43;;;16.30;64.60;;;;;;5087068;28;43980;-70
2022/01/22 08:17:49;;;;;;;4.93;4.53;;;16.30;64.80;;;;;;5088356;27;44098;-69
2022/01/22 08:20:21;;;;;;;5.07;4.67;;;16.40;65.40;;;;;;5054133;28;44198;-69
2022/01/22 08:23:09;;;;;;;5.13;4.37;;;16.50;64.20;;;;;;5086166;28;43926;-70
2022/01/22 08:25:50;;;;;;;4.70;4.30;;;16.60;64.00;;;;;;5071634;28;43939;-69
2022/01/22 08:28:58;;;;;;;4.77;4.37;;;16.50;64.00;;;;;;5085443;28;43992;-70
2022/01/22 08:31:45;;;;;;;6.53;5.17;;;16.50;64.10;;;;;;5096094;27;44014;-70
2022/01/22 08:37:00;;;;;;;5.50;5.00;;;16.40;64.50;;;;;;5086464;28;44460;-70
2022/01/22 08:39:29;;;;;;;5.07;4.60;;;16.30;64.50;;;;;;5086119;28;43929;-70
2022/01/22 08:42:00;;;;;;;4.73;4.33;;;16.30;64.50;;;;;;5086469;28;43837;-70
2022/01/22 08:44:29;;;;;;;4.73;4.43;;;16.30;64.60;;;;;;5052306;28;44033;-70
2022/01/22 08:47:00;;;;;;;4.47;4.17;;;16.30;64.80;;;;;;5069600;28;44054;-69
2022/01/22 08:49:28;;;;;;;5.07;4.57;;;16.30;64.80;;;;;;5086236;28;43999;-70
2022/01/22 08:52:10;;;;;;;4.77;4.47;;;16.30;64.80;;;;;;5081798;27;43512;-69
2022/01/22 08:54:41;;;;;;;4.77;4.33;;;16.30;64.90;;;;;;5085577;28;46495;-70
2022/01/22 08:57:10;;;;;;;5.67;5.10;;;16.20;65.00;;;;;;5069789;28;44030;-70
2022/01/22 08:59:59;;;;;;;4.80;4.40;;;16.30;65.00;;;;;;5087284;28;44334;-69
2022/01/22 09:02:29;;;;;;;5.07;4.57;;;16.50;64.60;;;;;;5069581;28;43430;-69
2022/01/22 09:05:17;;;;;;;4.80;4.40;;;16.60;64.00;;;;;;5083336;28;43979;-70
2022/01/22 09:08:06;;;;;;;4.73;4.30;;;16.80;63.60;;;;;;5071661;28;43954;-70
2022/01/22 09:10:57;;;;;;;4.93;4.30;;;16.80;63.30;;;;;;5085420;28;43963;-69
2022/01/22 09:13:46;;;;;;;5.20;4.80;;;16.70;63.30;;;;;;5083182;28;44037;-70
2022/01/22 09:16:14;;;;;;;5.00;4.60;;;16.70;63.70;;;;;;5069211;28;44779;-70
2022/01/22 09:18:48;;;;;;;5.23;4.83;;;16.60;63.80;;;;;;5052382;28;44321;-70
2022/01/22 09:21:24;;;;;;;4.53;4.13;;;16.50;64.00;;;;;;5085886;28;44045;-69
2022/01/22 09:23:53;;;;;;;4.60;4.30;;;16.50;64.30;;;;;;5070214;28;43984;-71
2022/01/22 09:26:24;;;;;;;4.50;4.20;;;16.40;64.40;;;;;;5068747;28;45751;-69
2022/01/22 09:28:58;;;;;;;5.00;4.40;;;16.40;64.60;;;;;;5069185;28;45036;-70
2022/01/22 09:31:27;;;;;;;4.67;4.37;;;16.30;64.50;;;;;;5084205;28;44056;-70
2022/01/22 09:33:59;;;;;;;4.43;4.03;;;16.30;64.50;;;;;;5069640;28;43888;-69
2022/01/22 09:36:47;;;;;;;4.60;4.30;;;16.30;64.70;;;;;;5082835;28;44464;-69
2022/01/22 09:39:42;;;;;;;4.90;4.50;;;16.30;65.00;;;;;;5085487;28;44093;-69
2022/01/22 09:42:40;;;;;;;4.70;4.30;;;16.40;64.60;;;;;;5080123;28;43926;-69
2022/01/22 09:45:29;;;;;;;3.73;3.53;;;16.50;64.10;;;;;;5086615;28;43930;-70
2022/01/22 09:48:15;;;;;;;4.43;4.13;;;16.60;64.10;;;;;;5085452;28;44720;-70
2022/01/22 09:51:25;;;;;;;4.50;4.17;;;16.50;64.10;;;;;;5063512;28;44112;-69
2022/01/22 09:54:14;;;;;;;4.03;3.83;;;16.50;64.30;;;;;;5043060;28;44091;-69
2022/01/22 09:57:06;;;;;;;4.47;4.13;;;16.40;64.50;;;;;;5072016;28;44216;-69
2022/01/22 09:59:47;;;;;;;4.43;4.13;;;16.40;64.60;;;;;;5082348;28;44768;-69
2022/01/22 10:02:42;;;;;;;4.23;4.03;;;16.30;64.60;;;;;;5081447;28;44031;-70
2022/01/22 10:05:37;;;;;;;4.50;4.20;;;16.30;64.80;;;;;;5085434;28;43999;-69
2022/01/22 10:08:28;;;;;;;4.67;4.27;;;16.30;64.90;;;;;;5085654;28;44224;-70
2022/01/22 10:11:20;;;;;;;4.30;4.10;;;16.30;65.10;;;;;;5071361;28;43596;-69
2022/01/22 10:14:15;;;;;;;4.10;3.90;;;16.20;65.00;;;;;;5081429;28;43535;-69
2022/01/22 10:16:48;;;;;;;3.80;3.60;;;16.20;65.00;;;;;;5068692;28;44023;-69
2022/01/22 10:19:17;;;;;;;4.73;4.33;;;16.30;65.30;;;;;;5068589;28;43639;-70
2022/01/22 10:21:48;;;;;;;4.53;4.13;;;16.30;65.10;;;;;;5084856;28;44070;-70
2022/01/22 10:24:32;;;;;;;4.23;4.00;;;16.50;64.80;;;;;;5084728;28;43972;-70
2022/01/22 10:27:21;;;;;;;4.07;3.77;;;16.60;64.20;;;;;;5068794;28;43909;-69
2022/01/22 10:29:52;;;;;;;4.63;4.23;;;16.70;63.70;;;;;;5068800;28;43514;-69
2022/01/22 10:32:23;;;;;;;4.57;4.17;;;16.70;63.50;;;;;;5078495;28;43952;-70
2022/01/22 10:35:15;;;;;;;4.23;4.03;;;16.70;63.50;;;;;;5071870;28;43831;-70
2022/01/22 10:38:22;;;;;;;4.23;3.93;;;16.60;63.80;;;;;;5083173;28;44064;-70
2022/01/22 10:40:56;;;;;;;3.73;3.53;;;16.60;64.10;;;;;;5084891;28;44128;-69
2022/01/22 10:43:29;;;;;;;4.30;4.00;;;16.50;64.30;;;;;;5067227;28;45956;-70
2022/01/22 10:46:07;;;;;;;3.47;3.30;;;16.40;64.50;;;;;;5084798;28;43827;-70
2022/01/22 10:48:36;;;;;;;4.03;3.73;;;16.40;64.60;;;;;;5069148;28;43881;-69
2022/01/22 10:51:06;;;;;;;3.70;3.50;;;16.30;64.60;;;;;;5085002;28;43843;-70
2022/01/22 10:53:36;;;;;;;3.70;3.50;;;16.30;64.80;;;;;;5067571;28;44034;-70
2022/01/22 10:56:07;;;;;;;3.83;3.63;;;16.30;64.80;;;;;;5060724;28;45831;-70
2022/01/22 10:58:51;;;;;;;3.80;3.60;;;16.30;65.00;;;;;;5078491;28;43937;-70
2022/01/22 11:01:19;;;;;;;3.80;3.60;;;16.30;65.10;;;;;;5067885;28;43542;-70
2022/01/22 11:04:12;;;;;;;3.83;3.60;;;16.40;64.60;;;;;;5068270;28;44982;-69
2022/01/22 11:06:42;;;;;;;3.43;3.23;;;16.50;64.30;;;;;;5064741;28;44132;-69
2022/01/22 11:09:10;;;;;;;4.07;3.77;;;16.50;64.30;;;;;;5084396;28;43923;-69
2022/01/22 11:11:41;;;;;;;3.53;3.33;;;16.50;64.40;;;;;;5067570;28;44021;-70
2022/01/22 11:14:10;;;;;;;3.50;3.30;;;16.40;64.60;;;;;;5078457;27;46023;-70
2022/01/22 11:16:40;;;;;;;3.63;3.40;;;16.40;64.60;;;;;;5087354;28;44035;-69
2022/01/22 11:19:16;;;;;;;3.70;3.50;;;16.30;64.70;;;;;;5082207;28;43380;-70
2022/01/22 11:21:47;;;;;;;3.50;3.30;;;16.30;64.80;;;;;;5087315;28;43973;-70
2022/01/22 11:24:16;;;;;;;3.27;3.17;;;16.30;64.90;;;;;;5087315;28;44088;-69
2022/01/22 11:26:50;;;;;;;3.70;3.50;;;16.30;65.00;;;;;;5088534;27;43495;-70
2022/01/22 11:29:18;;;;;;;3.37;3.27;;;16.30;65.10;;;;;;5071020;27;43979;-70
2022/01/22 11:31:47;;;;;;;3.40;3.23;;;16.20;65.10;;;;;;5070017;28;44014;-70
2022/01/22 11:34:15;;;;;;;3.50;3.40;;;16.20;65.10;;;;;;5070548;28;47057;-69
2022/01/22 11:36:47;;;;;;;3.40;3.20;;;16.20;65.10;;;;;;5053483;28;44052;-70
2022/01/22 11:39:21;;;;;;;3.07;2.97;;;16.20;65.20;;;;;;5070457;28;43930;-70
2022/01/22 11:41:56;;;;;;;3.60;3.40;;;16.30;65.30;;;;;;5071174;28;43490;-70
2022/01/22 11:44:32;;;;;;;3.33;3.23;;;16.40;64.90;;;;;;5086771;28;43955;-70
2022/01/22 11:47:14;;;;;;;3.53;3.40;;;16.60;64.50;;;;;;5088970;27;44462;-70
2022/01/22 11:50:00;;;;;;;3.33;3.23;;;16.70;63.80;;;;;;5054112;28;44036;-70
2022/01/22 11:52:33;;;;;;;3.30;3.20;;;16.70;63.50;;;;;;5072963;28;43921;-69
2022/01/22 11:55:02;;;;;;;3.10;3.00;;;16.70;63.60;;;;;;5070047;28;44268;-70
2022/01/22 11:57:32;;;;;;;3.30;3.17;;;16.60;63.80;;;;;;5088132;27;43838;-69
2022/01/22 12:00:24;;;;;;;2.80;2.70;;;16.60;64.10;;;;;;5088340;27;44066;-70
2022/01/22 12:03:17;;;;;;;3.10;3.00;;;16.50;64.30;;;;;;5087916;28;44080;-70
2022/01/22 12:06:09;;;;;;;2.77;2.67;;;16.40;64.50;;;;;;5086997;28;45222;-70
2022/01/22 12:09:11;;;;;;;2.83;2.73;;;16.40;64.60;;;;;;5086943;28;44025;-70
2022/01/22 12:14:57;;;;;;;3.17;3.07;;;16.30;64.80;;;;;;5072786;28;43977;-70
2022/01/22 12:17:57;;;;;;;2.90;2.80;;;16.30;65.00;;;;;;5087392;28;45148;-70
2022/01/22 12:21:30;;;;;;;2.97;2.87;;;16.30;65.10;;;;;;5070523;28;44004;-70
2022/01/22 12:23:52;;;;;;;3.17;3.00;;;16.30;65.10;;;;;;5085992;28;44080;-69
2022/01/22 12:27:01;;;;;;;3.00;2.90;;;16.40;64.60;;;;;;5070225;28;44342;-70
2022/01/22 12:29:47;;;;;;;2.50;2.40;;;16.50;64.40;;;;;;5069928;28;43978;-70
2022/01/22 12:32:26;;;;;;;2.73;2.63;;;16.40;64.50;;;;;;5080821;28;43983;-69
2022/01/22 12:34:58;;;;;;;2.80;2.70;;;16.40;64.60;;;;;;5080850;28;43403;-70
2022/01/22 12:37:29;;;;;;;2.73;2.63;;;16.30;64.50;;;;;;5086724;28;43933;-69
2022/01/22 12:39:58;;;;;;;3.67;3.43;;;16.30;64.80;;;;;;5069996;28;44238;-70
2022/01/22 12:42:57;;;;;;;3.20;3.00;;;16.30;64.80;;;;;;5069878;28;44043;-69
2022/01/22 12:45:26;;;;;;;3.13;3.03;;;16.30;64.80;;;;;;5063543;28;43873;-69
2022/01/22 12:47:56;;;;;;;3.13;3.03;;;16.30;64.80;;;;;;5081501;28;44043;-69
2022/01/22 12:50:30;;;;;;;3.20;3.10;;;16.20;64.70;;;;;;5086141;28;43965;-69
2022/01/22 12:53:03;;;;;;;3.87;3.17;;;16.20;64.80;;;;;;5069248;28;44612;-70
2022/01/22 12:58:24;;;;;;;3.13;2.87;;;16.20;65.00;;;;;;5049669;27;44007;-71
2022/01/22 13:00:53;;;;;;;4.20;3.23;;;16.20;65.00;;;;;;5069391;28;44721;-70
2022/01/22 13:03:36;;;;;;;3.40;3.17;;;16.20;64.80;;;;;;5069673;28;43978;-70
2022/01/22 13:06:04;;;;;;;3.73;3.43;;;16.30;64.50;;;;;;5069358;28;43914;-69
2022/01/22 13:08:57;;;;;;;3.03;2.93;;;16.50;64.10;;;;;;5070053;28;44005;-69
2022/01/22 13:11:44;;;;;;;5.27;3.47;;;16.70;63.60;;;;;;5070726;28;44496;-70
2022/01/22 13:14:13;;;;;;;2.83;2.73;;;16.70;63.30;;;;;;5069587;28;45273;-69
2022/01/22 13:16:49;;;;;;;3.73;3.53;;;16.70;63.90;;;;;;5052275;28;44057;-70
2022/01/22 13:19:19;;;;;;;3.27;3.17;;;16.60;64.10;;;;;;5086057;28;44190;-70
2022/01/22 13:21:52;;;;;;;3.33;3.17;;;16.60;64.50;;;;;;5085572;28;44059;-70
2022/01/22 13:24:24;;;;;;;3.30;3.10;;;16.50;64.70;;;;;;5085933;28;44320;-70
2022/01/22 13:26:56;;;;;;;3.50;3.30;;;16.50;65.00;;;;;;5085838;28;43794;-69
2022/01/22 13:29:28;;;;;;;3.63;3.43;;;16.40;65.10;;;;;;5069895;28;44023;-70
2022/01/22 13:32:18;;;;;;;3.20;3.10;;;16.40;65.30;;;;;;5068063;28;43950;-69
2022/01/22 13:35:12;;;;;;;3.47;3.20;;;16.30;65.50;;;;;;5068926;28;44109;-69
2022/01/22 13:38:24;;;;;;;3.60;3.40;;;16.30;65.50;;;;;;5053138;28;44073;-69
2022/01/22 13:49:23;;;;;;;7.20;3.77;;;16.40;65.10;;;;;;5085410;28;43979;-69
2022/01/22 13:51:52;;;;;;;9.73;4.10;;;16.50;65.70;;;;;;5069307;28;44148;-70
2022/01/22 13:54:20;;;;;;;9.10;3.80;;;16.40;66.00;;;;;;5068182;28;44700;-69
2022/01/22 13:56:52;;;;;;;9.57;4.57;;;16.40;66.50;;;;;;5067852;28;45042;-69
2022/01/22 13:59:21;;;;;;;10.87;4.13;;;16.30;66.60;;;;;;5062263;28;44057;-70
2022/01/22 14:02:03;;;;;;;20.17;4.70;;;16.30;67.20;;;;;;5062625;28;44212;-70
2022/01/22 14:04:41;;;;;;;13.17;4.37;;;16.30;67.20;;;;;;5080446;27;44982;-70
2022/01/22 14:07:31;;;;;;;8.60;4.40;;;16.30;67.70;;;;;;5068133;28;43814;-70
2022/01/22 14:10:02;;;;;;;18.00;5.30;;;16.20;67.90;;;;;;5086300;27;43955;-71
2022/01/22 14:12:34;;;;;;;14.57;4.60;;;16.20;67.90;;;;;;5061924;28;44266;-70
2022/01/22 14:15:06;;;;;;;11.43;4.80;;;16.20;67.90;;;;;;5067844;28;45613;-69
2022/01/22 14:17:39;;;;;;;8.40;4.30;;;16.20;67.90;;;;;;5068075;28;43989;-69
2022/01/22 14:20:10;;;;;;;15.37;4.30;;;16.20;67.90;;;;;;5084814;28;44012;-70
2022/01/22 14:23:01;;;;;;;15.57;4.87;;;16.20;68.00;;;;;;5051751;28;43466;-70
2022/01/22 14:25:29;;;;;;;12.33;4.33;;;16.30;68.00;;;;;;5084336;28;45927;-70
2022/01/22 14:28:07;;;;;;;15.20;4.20;;;16.40;67.30;;;;;;5051370;28;43850;-70
2022/01/22 14:30:44;;;;;;;11.17;4.03;;;16.60;66.70;;;;;;5063935;28;43468;-68
2022/01/22 14:33:14;;;;;;;9.53;4.30;;;16.70;66.20;;;;;;5084761;28;44375;-70
2022/01/22 14:35:43;;;;;;;6.50;3.63;;;16.70;65.90;;;;;;5086050;27;44012;-69
2022/01/22 14:38:34;;;;;;;6.77;4.30;;;16.70;66.00;;;;;;5050567;28;44801;-69
2022/01/22 14:46:45;;;;;;;4.70;3.70;;;16.50;66.70;;;;;;5084113;28;46165;-69
2022/01/22 14:49:13;;;;;;;7.00;3.93;;;16.40;66.80;;;;;;5085294;27;44446;-71
2022/01/22 14:51:42;;;;;;;7.97;3.67;;;16.40;67.00;;;;;;5054714;28;43464;-70